Time;durP1;ratioP1;P1;durP2;ratioP2;P2;SDS_P1;SDS_P2;PMS_P1;PMS_P2;Temp;Humidity;BMP_temperature;BMP_pressure;BME280_temperature;BME280_humidity;BME280_pressure;Samples;Min_cycle;Max_cycle;Signal;HPM_P1;HPM_P2
2021/08/19 00:01:49;;;;;;;7.83;5.70;;;19.60;76.80;;;;;;5054414;28;20180;-88
2021/08/19 00:04:15;;;;;;;11.95;6.50;;;19.50;77.40;;;;;;5054545;28;20603;-87
2021/08/19 00:06:41;;;;;;;10.80;6.53;;;19.50;77.60;;;;;;5055719;28;20272;-88
2021/08/19 00:09:07;;;;;;;11.10;6.80;;;19.50;77.70;;;;;;5054402;28;20205;-87
2021/08/19 00:11:34;;;;;;;8.20;5.80;;;19.40;77.80;;;;;;5055051;28;20231;-87
2021/08/19 00:13:59;;;;;;;13.32;6.95;;;19.40;77.80;;;;;;5054461;28;20443;-87
2021/08/19 00:16:25;;;;;;;13.03;6.23;;;19.50;77.80;;;;;;5054065;28;20192;-87
2021/08/19 00:18:51;;;;;;;10.53;6.10;;;19.60;77.70;;;;;;5055362;28;20200;-87
2021/08/19 00:21:17;;;;;;;12.50;6.20;;;19.40;77.90;;;;;;5053648;28;20633;-88
2021/08/19 00:23:42;;;;;;;11.77;7.63;;;19.50;77.40;;;;;;5054667;28;20189;-87
2021/08/19 00:26:08;;;;;;;13.00;6.93;;;19.40;77.70;;;;;;5053630;28;20177;-87
2021/08/19 00:28:34;;;;;;;16.73;7.93;;;19.50;78.00;;;;;;5053151;28;20657;-87
2021/08/19 00:31:00;;;;;;;13.87;7.07;;;19.40;77.90;;;;;;5053746;28;20192;-87
2021/08/19 00:33:26;;;;;;;9.38;7.13;;;19.50;77.90;;;;;;5055449;28;20195;-87
2021/08/19 00:35:52;;;;;;;10.40;7.60;;;19.60;77.60;;;;;;5053996;28;20181;-87
2021/08/19 00:38:17;;;;;;;8.60;7.10;;;19.50;77.50;;;;;;5057983;28;20655;-88
2021/08/19 00:40:43;;;;;;;16.53;7.57;;;19.60;77.70;;;;;;5053372;28;20177;-88
2021/08/19 00:43:09;;;;;;;16.67;8.70;;;19.50;77.80;;;;;;5053510;28;20200;-88
2021/08/19 00:45:39;;;;;;;10.70;7.97;;;19.40;77.80;;;;;;5053854;28;20899;-87
2021/08/19 00:48:06;;;;;;;13.82;8.15;;;19.30;78.00;;;;;;5053215;28;20524;-87
2021/08/19 00:50:32;;;;;;;8.82;7.63;;;19.30;78.20;;;;;;5053844;28;20188;-88
2021/08/19 00:52:58;;;;;;;12.07;8.70;;;19.40;78.00;;;;;;5054053;28;20193;-87
2021/08/19 00:55:24;;;;;;;12.60;8.30;;;19.30;78.10;;;;;;5053205;28;20423;-87
2021/08/19 00:57:50;;;;;;;13.33;7.57;;;19.30;78.30;;;;;;5053012;28;20181;-87
2021/08/19 01:00:16;;;;;;;15.17;9.20;;;19.40;78.20;;;;;;5053031;28;20181;-88
2021/08/19 01:02:48;;;;;;;12.95;9.07;;;19.30;78.20;;;;;;5057610;28;20663;-87
2021/08/19 01:05:21;;;;;;;17.55;8.55;;;19.40;78.10;;;;;;5052934;28;20181;-88
2021/08/19 01:07:47;;;;;;;17.05;8.45;;;19.40;78.00;;;;;;5053688;28;20715;-87
2021/08/19 01:10:13;;;;;;;11.53;7.50;;;19.40;78.10;;;;;;5052639;28;20271;-88
2021/08/19 01:12:41;;;;;;;14.20;9.25;;;19.30;78.40;;;;;;5052213;28;20259;-88
2021/08/19 01:15:07;;;;;;;18.88;8.25;;;19.40;78.30;;;;;;5053218;28;20173;-88
2021/08/19 01:17:33;;;;;;;10.23;7.18;;;19.50;78.30;;;;;;5052443;28;20219;-87
2021/08/19 01:19:59;;;;;;;14.10;9.23;;;19.50;78.10;;;;;;5052976;28;20586;-87
2021/08/19 01:22:25;;;;;;;15.35;8.38;;;19.50;77.80;;;;;;5053211;28;20193;-87
2021/08/19 01:24:52;;;;;;;22.35;9.00;;;19.50;77.90;;;;;;5052778;28;20621;-88
2021/08/19 01:27:19;;;;;;;19.02;9.55;;;19.50;77.60;;;;;;5053026;28;20785;-88
2021/08/19 01:29:47;;;;;;;16.30;10.77;;;19.50;77.60;;;;;;5054202;28;20289;-87
2021/08/19 01:32:14;;;;;;;16.48;8.30;;;19.40;77.80;;;;;;5052833;28;20189;-88
2021/08/19 01:34:40;;;;;;;13.60;9.07;;;19.40;77.40;;;;;;5054948;28;20208;-88
2021/08/19 01:37:08;;;;;;;11.80;8.13;;;19.40;77.70;;;;;;5049232;28;20185;-87
2021/08/19 01:39:34;;;;;;;20.58;9.73;;;19.50;77.90;;;;;;5033097;28;20243;-88
2021/08/19 01:42:01;;;;;;;12.23;8.20;;;19.40;77.90;;;;;;5031809;28;20201;-88
2021/08/19 01:44:26;;;;;;;12.35;8.90;;;19.40;77.70;;;;;;5033954;28;20185;-88
2021/08/19 01:46:57;;;;;;;11.40;8.03;;;19.50;77.80;;;;;;5034569;28;20251;-88
2021/08/19 01:49:23;;;;;;;16.65;8.40;;;19.40;77.70;;;;;;5032514;28;20185;-88
2021/08/19 01:51:49;;;;;;;11.47;8.43;;;19.60;76.90;;;;;;5034103;28;20601;-88
2021/08/19 01:54:15;;;;;;;16.17;8.02;;;19.50;76.80;;;;;;5034219;28;20405;-87
2021/08/19 01:56:42;;;;;;;19.42;10.30;;;19.50;77.40;;;;;;5036232;28;20185;-88
2021/08/19 01:59:07;;;;;;;17.20;7.65;;;19.40;77.70;;;;;;5034458;28;20209;-87
2021/08/19 02:01:33;;;;;;;13.63;9.30;;;19.50;77.80;;;;;;5032010;28;20247;-88
2021/08/19 02:03:59;;;;;;;15.73;9.23;;;19.40;77.90;;;;;;5034825;28;20194;-88
2021/08/19 02:06:25;;;;;;;14.70;9.23;;;19.50;77.60;;;;;;5034954;28;20253;-88
2021/08/19 02:08:50;;;;;;;19.43;10.23;;;19.40;78.30;;;;;;5037098;28;20259;-88
2021/08/19 02:11:19;;;;;;;17.90;9.37;;;19.40;77.70;;;;;;5048407;28;20257;-89
2021/08/19 02:13:44;;;;;;;17.38;10.40;;;19.40;77.00;;;;;;5056367;28;20190;-86
2021/08/19 02:16:10;;;;;;;15.97;10.03;;;19.30;77.60;;;;;;5067196;28;20197;-88
2021/08/19 02:18:36;;;;;;;13.20;9.97;;;19.20;78.00;;;;;;5076896;28;20438;-86
2021/08/19 02:21:02;;;;;;;14.60;9.13;;;19.40;77.90;;;;;;5080211;28;20427;-88
2021/08/19 02:23:27;;;;;;;19.20;10.60;;;19.30;78.20;;;;;;5079904;28;20192;-86
2021/08/19 02:25:53;;;;;;;15.90;9.77;;;19.30;78.30;;;;;;5080070;28;20185;-87
2021/08/19 02:28:19;;;;;;;15.80;9.27;;;19.30;78.20;;;;;;5080716;28;20201;-86
2021/08/19 02:30:44;;;;;;;19.50;9.93;;;19.20;78.20;;;;;;5079983;28;20157;-89
2021/08/19 02:33:11;;;;;;;18.88;10.10;;;19.20;78.40;;;;;;5080297;28;20193;-89
2021/08/19 02:35:36;;;;;;;13.83;9.50;;;19.20;79.40;;;;;;5080211;28;20201;-88
2021/08/19 02:38:06;;;;;;;17.23;8.80;;;19.10;79.10;;;;;;5079884;28;20200;-88
2021/08/19 02:40:33;;;;;;;22.30;9.93;;;19.10;79.30;;;;;;5079851;28;20200;-86
2021/08/19 02:42:59;;;;;;;18.88;9.65;;;19.10;79.20;;;;;;5079323;28;20193;-88
2021/08/19 02:45:25;;;;;;;34.47;10.83;;;19.30;78.30;;;;;;5079550;28;20189;-87
2021/08/19 02:47:52;;;;;;;16.63;10.00;;;19.30;78.30;;;;;;5072673;28;20231;-87
2021/08/19 02:50:17;;;;;;;17.67;8.63;;;19.20;78.60;;;;;;5066399;28;20193;-87
2021/08/19 02:52:43;;;;;;;16.97;9.23;;;19.30;79.00;;;;;;5061973;28;20197;-88
2021/08/19 02:55:10;;;;;;;17.63;9.48;;;19.30;78.50;;;;;;5062389;28;20419;-87
2021/08/19 02:57:36;;;;;;;19.20;10.00;;;19.20;78.80;;;;;;5063961;28;20173;-88
2021/08/19 03:00:02;;;;;;;18.33;10.93;;;19.10;79.10;;;;;;5062965;28;20191;-87
2021/08/19 03:02:28;;;;;;;17.08;10.15;;;19.10;79.30;;;;;;5063000;28;20439;-87
2021/08/19 03:04:54;;;;;;;17.17;9.50;;;19.20;79.40;;;;;;5055712;28;20247;-87
2021/08/19 03:07:19;;;;;;;18.17;10.20;;;19.20;79.90;;;;;;5056620;28;20213;-88
2021/08/19 03:09:45;;;;;;;16.87;9.93;;;19.20;79.30;;;;;;5055236;28;20264;-87
2021/08/19 03:12:11;;;;;;;18.40;8.60;;;19.20;79.20;;;;;;5055521;28;20204;-88
2021/08/19 03:14:37;;;;;;;16.90;10.90;;;19.10;79.40;;;;;;5055923;28;20174;-88
2021/08/19 03:17:04;;;;;;;13.63;10.30;;;19.10;79.50;;;;;;5056085;28;20624;-87
2021/08/19 03:19:31;;;;;;;13.15;9.82;;;19.10;79.50;;;;;;5056974;28;20788;-88
2021/08/19 03:21:57;;;;;;;19.63;11.70;;;19.10;79.70;;;;;;5054113;28;20180;-88
2021/08/19 03:24:22;;;;;;;15.43;9.13;;;19.10;79.60;;;;;;5054478;28;20181;-87
2021/08/19 03:26:48;;;;;;;15.73;9.00;;;19.10;79.70;;;;;;5056029;28;20177;-88
2021/08/19 03:29:14;;;;;;;14.33;9.40;;;19.20;79.50;;;;;;5054109;28;20191;-88
2021/08/19 03:31:39;;;;;;;19.20;9.77;;;19.20;79.60;;;;;;5055333;28;20174;-88
2021/08/19 03:34:05;;;;;;;12.53;9.13;;;19.20;79.20;;;;;;5054297;28;20173;-89
2021/08/19 03:36:31;;;;;;;17.80;10.27;;;19.20;79.20;;;;;;5055376;28;20252;-88
2021/08/19 03:38:57;;;;;;;18.63;10.00;;;19.30;79.10;;;;;;5034469;28;20235;-88
2021/08/19 03:41:22;;;;;;;11.33;9.70;;;19.20;79.10;;;;;;5034189;28;20417;-88
2021/08/19 03:43:48;;;;;;;18.23;10.03;;;19.20;79.20;;;;;;5035570;28;20194;-88
2021/08/19 03:46:15;;;;;;;18.70;11.03;;;19.20;79.40;;;;;;5034644;28;20174;-88
2021/08/19 03:48:41;;;;;;;23.35;10.55;;;19.20;79.10;;;;;;5033758;28;20278;-88
2021/08/19 03:51:09;;;;;;;23.05;10.35;;;19.10;79.10;;;;;;5034224;28;20567;-88
2021/08/19 03:53:36;;;;;;;18.70;9.73;;;19.10;79.80;;;;;;5033785;28;20280;-88
2021/08/19 03:56:03;;;;;;;18.05;10.40;;;19.00;79.60;;;;;;5035482;28;20182;-88
2021/08/19 03:58:28;;;;;;;24.73;9.90;;;19.00;79.70;;;;;;5033853;28;20182;-88
2021/08/19 04:00:54;;;;;;;19.57;10.07;;;19.10;79.30;;;;;;5034219;28;20196;-88
2021/08/19 04:03:20;;;;;;;13.53;9.43;;;19.10;78.90;;;;;;5033666;28;20205;-88
2021/08/19 04:05:45;;;;;;;16.20;9.47;;;19.20;79.20;;;;;;5033688;28;20178;-88
2021/08/19 04:08:11;;;;;;;24.50;10.20;;;19.20;78.80;;;;;;5035499;28;20205;-88
2021/08/19 04:10:37;;;;;;;17.57;10.73;;;19.20;79.10;;;;;;5034891;28;20699;-88
2021/08/19 04:13:03;;;;;;;19.90;10.07;;;19.10;79.30;;;;;;5033823;28;20229;-88
2021/08/19 04:15:29;;;;;;;15.60;10.03;;;19.10;79.50;;;;;;5035672;28;20629;-88
2021/08/19 04:17:55;;;;;;;20.27;10.33;;;19.10;79.80;;;;;;5035156;28;20223;-88
2021/08/19 04:20:21;;;;;;;18.13;9.25;;;19.20;79.20;;;;;;5035872;28;20447;-88
2021/08/19 04:22:47;;;;;;;20.77;10.05;;;19.20;78.90;;;;;;5033067;28;20204;-88
2021/08/19 04:25:14;;;;;;;16.83;9.85;;;19.00;79.20;;;;;;5033634;28;20593;-88
2021/08/19 04:27:40;;;;;;;20.55;9.75;;;19.10;79.50;;;;;;5033956;28;20628;-88
2021/08/19 04:30:08;;;;;;;20.13;9.77;;;19.10;79.60;;;;;;5033195;28;20202;-88
2021/08/19 04:32:34;;;;;;;19.05;11.10;;;19.00;79.60;;;;;;5034674;28;20224;-88
2021/08/19 04:35:00;;;;;;;18.30;9.73;;;19.00;79.80;;;;;;5033775;28;20188;-88
2021/08/19 04:37:26;;;;;;;17.17;10.13;;;19.10;79.80;;;;;;5033910;28;20241;-88
2021/08/19 04:39:52;;;;;;;14.37;9.50;;;19.10;79.90;;;;;;5034820;28;20428;-88
2021/08/19 04:42:18;;;;;;;13.20;9.80;;;19.10;79.80;;;;;;5034117;28;20840;-88
2021/08/19 04:44:44;;;;;;;17.60;9.70;;;19.10;79.60;;;;;;5035192;28;20491;-88
2021/08/19 04:47:09;;;;;;;17.47;9.27;;;19.10;79.60;;;;;;5035088;28;20723;-88
2021/08/19 04:49:35;;;;;;;13.20;10.53;;;19.10;79.70;;;;;;5035298;28;20174;-88
2021/08/19 04:52:01;;;;;;;23.23;10.10;;;19.10;79.70;;;;;;5037691;28;20623;-88
2021/08/19 04:54:26;;;;;;;15.60;10.77;;;19.00;79.80;;;;;;5041176;28;20178;-88
2021/08/19 04:56:52;;;;;;;21.17;9.87;;;19.10;79.80;;;;;;5039399;28;20181;-88
2021/08/19 04:59:18;;;;;;;18.70;9.77;;;19.20;79.10;;;;;;5038530;28;20178;-88
2021/08/19 05:01:44;;;;;;;18.07;8.87;;;19.10;79.20;;;;;;5040180;28;20173;-88
2021/08/19 05:04:10;;;;;;;16.13;10.82;;;19.10;79.50;;;;;;5041041;28;20582;-88
2021/08/19 05:06:36;;;;;;;13.67;8.93;;;19.20;79.30;;;;;;5038964;28;20224;-89
2021/08/19 05:09:05;;;;;;;16.97;8.57;;;19.20;79.30;;;;;;5048145;28;20484;-88
2021/08/19 05:11:31;;;;;;;16.33;8.65;;;19.10;79.50;;;;;;5050638;28;20182;-89
2021/08/19 05:13:59;;;;;;;15.68;9.40;;;19.10;79.70;;;;;;5050134;28;20201;-88
2021/08/19 05:16:25;;;;;;;9.73;8.73;;;19.20;79.60;;;;;;5051374;28;20174;-88
2021/08/19 05:18:52;;;;;;;12.90;7.80;;;19.20;79.10;;;;;;5052783;28;20208;-88
2021/08/19 05:21:17;;;;;;;14.65;8.10;;;19.20;79.00;;;;;;5056135;28;20162;-90
2021/08/19 05:23:43;;;;;;;18.43;9.30;;;19.30;78.90;;;;;;5056864;28;20264;-88
2021/08/19 05:26:09;;;;;;;13.07;9.37;;;19.30;78.70;;;;;;5056982;28;20169;-89
2021/08/19 05:28:35;;;;;;;14.48;8.95;;;19.20;78.90;;;;;;5056141;28;20217;-89
2021/08/19 05:31:01;;;;;;;10.07;8.03;;;19.30;79.10;;;;;;5073630;28;20188;-89
2021/08/19 05:33:26;;;;;;;15.30;9.53;;;19.40;78.30;;;;;;5076677;28;20248;-87
2021/08/19 05:35:52;;;;;;;19.80;9.83;;;19.30;78.50;;;;;;5076010;28;20212;-89
2021/08/19 05:38:18;;;;;;;15.50;9.60;;;19.30;78.90;;;;;;5076475;28;20427;-89
2021/08/19 05:40:44;;;;;;;20.50;11.27;;;19.30;78.90;;;;;;5076651;28;20248;-89
2021/08/19 05:43:09;;;;;;;12.60;8.37;;;19.30;78.20;;;;;;5076063;28;20230;-89
2021/08/19 05:45:35;;;;;;;20.83;9.07;;;19.30;78.40;;;;;;5077344;28;20165;-89
2021/08/19 05:48:02;;;;;;;15.50;9.03;;;19.30;78.60;;;;;;5076423;28;20225;-89
2021/08/19 05:50:29;;;;;;;15.00;9.18;;;19.20;78.80;;;;;;5076189;28;20181;-89
2021/08/19 05:52:55;;;;;;;23.00;12.02;;;19.30;78.60;;;;;;5077897;28;20177;-89
2021/08/19 05:55:21;;;;;;;18.67;10.33;;;19.40;78.70;;;;;;5080447;28;20180;-89
2021/08/19 05:57:47;;;;;;;12.23;8.43;;;19.30;78.70;;;;;;5080866;28;20247;-89
2021/08/19 06:00:14;;;;;;;17.67;9.57;;;19.30;78.80;;;;;;5080391;28;20196;-89
2021/08/19 06:02:40;;;;;;;17.25;10.98;;;19.40;78.70;;;;;;5079238;28;20200;-88
2021/08/19 06:05:06;;;;;;;21.40;10.27;;;19.40;78.60;;;;;;5080063;28;20229;-89
2021/08/19 06:07:32;;;;;;;16.15;11.15;;;19.50;78.30;;;;;;5079963;28;20220;-89
2021/08/19 06:09:58;;;;;;;15.97;11.73;;;19.50;78.20;;;;;;5080061;28;20177;-87
2021/08/19 06:12:40;;;;;;;19.87;11.07;;;19.50;78.10;;;;;;5080002;28;20279;-89
2021/08/19 06:15:07;;;;;;;16.88;11.70;;;19.50;78.10;;;;;;5079742;28;20165;-88
2021/08/19 06:17:33;;;;;;;17.75;12.30;;;19.70;77.80;;;;;;5068698;28;20205;-88
2021/08/19 06:19:59;;;;;;;19.25;12.05;;;19.70;77.40;;;;;;5056225;28;20177;-88
2021/08/19 06:22:25;;;;;;;21.88;13.35;;;19.70;77.40;;;;;;5056406;28;20286;-88
2021/08/19 06:24:51;;;;;;;22.10;13.73;;;19.80;76.80;;;;;;5056038;28;20177;-88
2021/08/19 06:27:17;;;;;;;16.40;13.37;;;19.80;76.70;;;;;;5056725;28;20551;-88
2021/08/19 06:29:43;;;;;;;20.30;12.50;;;19.80;76.40;;;;;;5057869;28;20165;-88
2021/08/19 06:32:09;;;;;;;16.60;12.80;;;19.80;76.60;;;;;;5057349;28;20204;-88
2021/08/19 06:34:35;;;;;;;21.63;12.93;;;19.80;76.40;;;;;;5061242;28;20169;-88
2021/08/19 06:37:04;;;;;;;25.25;14.02;;;20.00;75.70;;;;;;5059934;28;20253;-88
2021/08/19 06:39:30;;;;;;;20.23;12.65;;;20.10;75.60;;;;;;5058637;28;20197;-88
2021/08/19 06:41:56;;;;;;;24.77;12.45;;;20.10;75.40;;;;;;5058916;28;20648;-88
2021/08/19 06:44:22;;;;;;;31.83;12.70;;;20.10;74.90;;;;;;5058118;28;20181;-86
2021/08/19 06:46:47;;;;;;;33.30;13.67;;;20.20;74.50;;;;;;5060021;28;20180;-88
2021/08/19 06:49:13;;;;;;;38.97;14.93;;;20.10;74.10;;;;;;5057604;28;20859;-88
2021/08/19 06:51:39;;;;;;;26.67;10.43;;;20.10;73.80;;;;;;5062701;28;20173;-89
2021/08/19 06:54:05;;;;;;;21.97;11.90;;;20.30;73.80;;;;;;5061708;28;20181;-88
2021/08/19 06:56:30;;;;;;;35.57;10.80;;;20.30;73.70;;;;;;5057500;28;20181;-88
2021/08/19 06:58:56;;;;;;;17.87;9.87;;;20.40;73.40;;;;;;5059336;28;20205;-88
2021/08/19 07:01:22;;;;;;;13.20;8.13;;;20.50;73.10;;;;;;5058469;28;20919;-88
2021/08/19 07:04:18;;;;;;;15.97;9.73;;;20.60;72.00;;;;;;5060047;28;20254;-88
2021/08/19 07:06:48;;;;;;;11.50;8.70;;;20.60;71.50;;;;;;5062204;28;20431;-88
2021/08/19 07:09:14;;;;;;;13.93;9.67;;;20.60;71.10;;;;;;5060090;28;20173;-88
2021/08/19 07:11:40;;;;;;;13.37;7.83;;;20.40;71.00;;;;;;5057596;28;20517;-88
2021/08/19 07:14:06;;;;;;;13.80;8.75;;;20.40;71.10;;;;;;5059015;28;20427;-88
2021/08/19 07:16:32;;;;;;;10.67;7.70;;;20.40;70.80;;;;;;5056951;28;20185;-88
2021/08/19 07:18:58;;;;;;;9.07;7.47;;;20.60;70.30;;;;;;5057594;28;20432;-88
2021/08/19 07:21:24;;;;;;;12.10;7.90;;;20.60;69.80;;;;;;5057062;28;20181;-88
2021/08/19 07:23:49;;;;;;;13.57;6.90;;;20.60;69.30;;;;;;5057725;28;20217;-88
2021/08/19 07:26:16;;;;;;;13.77;5.87;;;20.70;69.30;;;;;;5057160;28;20860;-89
2021/08/19 07:28:42;;;;;;;9.98;6.68;;;20.80;69.10;;;;;;5055766;28;20664;-88
2021/08/19 07:31:08;;;;;;;13.57;7.37;;;20.80;69.30;;;;;;5055053;28;20268;-89
2021/08/19 07:33:34;;;;;;;15.27;7.03;;;20.80;70.00;;;;;;5055679;28;20474;-88
2021/08/19 07:36:00;;;;;;;7.20;4.97;;;20.80;69.00;;;;;;5058215;28;20295;-89
2021/08/19 07:38:26;;;;;;;7.93;5.60;;;20.70;69.60;;;;;;5054915;28;20455;-88
2021/08/19 07:40:51;;;;;;;7.50;6.07;;;20.80;68.40;;;;;;5054552;28;20188;-89
2021/08/19 07:43:17;;;;;;;9.93;4.70;;;20.80;68.40;;;;;;5055651;28;20453;-88
2021/08/19 07:45:43;;;;;;;6.67;4.93;;;21.20;68.50;;;;;;5057720;28;20248;-88
2021/08/19 07:48:14;;;;;;;7.97;5.97;;;21.50;67.50;;;;;;5056203;28;20263;-88
2021/08/19 07:50:41;;;;;;;10.70;4.77;;;21.70;65.10;;;;;;5057001;28;20177;-88
2021/08/19 07:53:07;;;;;;;10.43;5.80;;;21.60;65.10;;;;;;5055917;28;20997;-88
2021/08/19 07:55:32;;;;;;;5.00;4.30;;;21.60;65.20;;;;;;5056288;28;20431;-88
2021/08/19 07:57:58;;;;;;;9.37;4.53;;;21.60;65.50;;;;;;5056531;28;20227;-88
2021/08/19 08:00:28;;;;;;;7.93;5.27;;;21.70;65.60;;;;;;5055627;28;20528;-89
2021/08/19 08:02:55;;;;;;;5.43;4.17;;;21.80;65.00;;;;;;5055705;28;20431;-89
2021/08/19 08:05:22;;;;;;;6.40;4.33;;;21.90;64.60;;;;;;5059698;28;20986;-88
2021/08/19 08:07:48;;;;;;;4.93;4.37;;;21.90;64.30;;;;;;5056637;28;20497;-89
2021/08/19 08:10:15;;;;;;;8.23;5.23;;;21.90;63.80;;;;;;5056911;28;20411;-89
2021/08/19 08:12:41;;;;;;;5.73;5.03;;;22.10;64.80;;;;;;5057452;28;20962;-88
2021/08/19 08:15:07;;;;;;;6.40;4.90;;;22.10;62.80;;;;;;5055024;28;20416;-88
2021/08/19 08:17:34;;;;;;;7.53;5.20;;;22.00;62.80;;;;;;5054482;28;20440;-88
2021/08/19 08:20:00;;;;;;;9.77;5.00;;;22.10;62.70;;;;;;5055550;28;20554;-88
2021/08/19 08:22:26;;;;;;;6.40;4.70;;;22.30;62.70;;;;;;5055228;28;20550;-89
2021/08/19 08:24:52;;;;;;;8.83;4.60;;;22.10;62.70;;;;;;5053774;28;20465;-88
2021/08/19 08:27:19;;;;;;;7.80;4.87;;;22.10;62.80;;;;;;5056395;28;20197;-89
2021/08/19 08:29:44;;;;;;;5.77;4.57;;;22.10;62.60;;;;;;5054554;28;20181;-88
2021/08/19 08:32:10;;;;;;;12.60;4.03;;;22.20;62.70;;;;;;5054326;28;20439;-89
2021/08/19 08:34:40;;;;;;;8.70;5.27;;;22.40;61.90;;;;;;5054454;28;20267;-89
2021/08/19 08:37:07;;;;;;;8.70;5.20;;;22.60;61.50;;;;;;5054208;28;20173;-89
2021/08/19 08:39:37;;;;;;;7.13;4.33;;;22.90;61.10;;;;;;5056271;28;20466;-88
2021/08/19 08:42:10;;;;;;;5.40;3.90;;;23.00;60.00;;;;;;5055244;28;20428;-89
2021/08/19 08:44:36;;;;;;;9.67;4.23;;;23.10;59.60;;;;;;5054524;28;20956;-88
2021/08/19 08:47:02;;;;;;;5.87;4.10;;;23.50;59.10;;;;;;5054268;28;20419;-87
2021/08/19 08:49:28;;;;;;;4.87;3.43;;;23.40;58.40;;;;;;5054625;28;20173;-88
2021/08/19 08:51:57;;;;;;;4.27;3.87;;;23.60;58.00;;;;;;5054087;28;20470;-89
2021/08/19 08:54:24;;;;;;;7.07;5.27;;;23.50;57.20;;;;;;5053934;28;20833;-88
2021/08/19 08:56:51;;;;;;;13.10;3.93;;;23.30;56.60;;;;;;5054532;28;20450;-88
2021/08/19 08:59:17;;;;;;;8.40;3.90;;;23.20;57.00;;;;;;5055497;28;20409;-88
2021/08/19 09:01:42;;;;;;;6.20;3.90;;;23.20;57.00;;;;;;5055083;28;20422;-88
2021/08/19 09:04:08;;;;;;;5.83;3.50;;;23.30;57.30;;;;;;5060081;28;20408;-89
2021/08/19 09:06:44;;;;;;;7.53;4.30;;;23.10;58.30;;;;;;5048076;28;20224;-87
2021/08/19 09:09:29;;;;;;;8.20;4.83;;;22.90;57.20;;;;;;5046044;28;20268;-87
2021/08/19 09:12:02;;;;;;;7.17;3.50;;;22.80;57.40;;;;;;5047785;28;20385;-88
2021/08/19 09:14:32;;;;;;;6.57;4.87;;;22.80;57.10;;;;;;5045526;28;20412;-88
2021/08/19 09:16:58;;;;;;;8.33;4.77;;;22.80;57.10;;;;;;5040083;28;20460;-88
2021/08/19 09:19:29;;;;;;;4.90;4.07;;;23.00;57.60;;;;;;5056873;28;20431;-86
2021/08/19 09:22:04;;;;;;;15.47;4.13;;;23.30;57.20;;;;;;5056625;28;20420;-87
2021/08/19 09:24:35;;;;;;;7.80;4.07;;;23.20;57.70;;;;;;5056476;28;20404;-87
2021/08/19 09:27:13;;;;;;;12.80;4.50;;;23.40;56.60;;;;;;5056584;28;20436;-88
2021/08/19 09:29:39;;;;;;;7.60;4.10;;;23.50;55.80;;;;;;5056804;28;20408;-88
2021/08/19 09:32:16;;;;;;;5.90;4.20;;;23.60;56.10;;;;;;5057134;28;20424;-86
2021/08/19 09:34:44;;;;;;;8.40;4.43;;;23.40;56.30;;;;;;5056767;28;20416;-89
2021/08/19 09:37:18;;;;;;;5.17;4.67;;;23.50;56.20;;;;;;5056766;28;20405;-87
2021/08/19 09:39:54;;;;;;;8.97;4.80;;;23.60;56.00;;;;;;5056699;28;20412;-88
2021/08/19 09:42:34;;;;;;;7.00;4.17;;;23.70;55.50;;;;;;5056979;28;20446;-87
2021/08/19 09:45:00;;;;;;;8.07;4.67;;;23.80;55.00;;;;;;5056628;28;20416;-87
2021/08/19 09:47:34;;;;;;;8.30;4.87;;;23.80;54.30;;;;;;5056269;28;20487;-86
2021/08/19 09:50:15;;;;;;;4.73;4.23;;;23.80;54.10;;;;;;5056345;28;20236;-87
2021/08/19 09:52:42;;;;;;;7.03;3.73;;;23.70;54.40;;;;;;5055445;28;20437;-87
2021/08/19 09:55:27;;;;;;;8.50;4.80;;;24.10;54.20;;;;;;5056180;28;20444;-87
2021/08/19 09:57:54;;;;;;;5.17;4.67;;;24.20;54.10;;;;;;5055452;28;20409;-87
2021/08/19 10:00:30;;;;;;;4.73;4.07;;;24.10;54.10;;;;;;5045940;28;20455;-87
2021/08/19 10:02:57;;;;;;;5.83;4.23;;;24.00;54.40;;;;;;5033760;28;21008;-89
2021/08/19 10:05:24;;;;;;;3.70;3.40;;;23.90;54.70;;;;;;5033135;28;20511;-87
2021/08/19 10:07:50;;;;;;;6.77;4.70;;;23.50;55.20;;;;;;5034929;28;20464;-87
2021/08/19 10:10:16;;;;;;;6.63;3.70;;;23.50;55.60;;;;;;5034132;28;20405;-87
2021/08/19 10:12:47;;;;;;;5.60;3.60;;;23.60;55.70;;;;;;5033258;28;20432;-87
2021/08/19 10:15:14;;;;;;;5.60;4.03;;;23.30;55.90;;;;;;5036793;28;20853;-87
2021/08/19 10:17:47;;;;;;;7.30;4.03;;;23.20;56.40;;;;;;5034452;28;20603;-87
2021/08/19 10:20:19;;;;;;;7.43;3.10;;;23.20;56.30;;;;;;5034722;28;20450;-87
2021/08/19 10:22:47;;;;;;;8.03;3.53;;;23.30;56.10;;;;;;5033176;28;20436;-88
2021/08/19 10:25:14;;;;;;;5.00;3.03;;;23.20;55.70;;;;;;5034054;28;20432;-87
2021/08/19 10:27:40;;;;;;;8.27;3.13;;;23.40;55.70;;;;;;5034429;28;20460;-88
2021/08/19 10:30:22;;;;;;;7.13;2.73;;;23.60;54.90;;;;;;5034245;28;20413;-87
2021/08/19 10:32:55;;;;;;;5.50;4.40;;;23.50;55.30;;;;;;5034646;28;20194;-87
2021/08/19 10:35:28;;;;;;;5.30;3.30;;;23.50;55.70;;;;;;5034165;28;20405;-87
2021/08/19 10:37:53;;;;;;;5.53;2.53;;;23.50;55.90;;;;;;5034893;28;20416;-87
2021/08/19 10:40:21;;;;;;;5.37;3.47;;;23.70;55.90;;;;;;5037039;28;20408;-87
2021/08/19 10:42:53;;;;;;;3.13;2.73;;;24.10;55.70;;;;;;5036822;28;20209;-87
2021/08/19 10:45:28;;;;;;;5.83;3.20;;;23.90;55.40;;;;;;5056123;28;20426;-88
2021/08/19 10:48:14;;;;;;;4.50;3.70;;;23.80;55.20;;;;;;5058127;28;20538;-87
2021/08/19 10:50:41;;;;;;;7.27;4.00;;;24.10;55.30;;;;;;5027115;28;20423;-88
2021/08/19 10:53:18;;;;;;;7.83;3.03;;;24.10;55.00;;;;;;5058297;28;20435;-88
2021/08/19 10:55:55;;;;;;;6.23;2.87;;;24.10;54.20;;;;;;5057599;28;20914;-88
2021/08/19 10:58:31;;;;;;;6.03;3.33;;;24.30;53.60;;;;;;5059407;28;20407;-88
2021/08/19 11:01:20;;;;;;;5.60;3.83;;;24.30;53.70;;;;;;5056529;28;20420;-88
2021/08/19 11:03:51;;;;;;;10.13;3.70;;;24.20;54.20;;;;;;5061211;28;20454;-88
2021/08/19 11:06:44;;;;;;;5.20;3.50;;;24.40;54.30;;;;;;5060874;28;20895;-88
2021/08/19 11:09:14;;;;;;;6.37;3.20;;;24.10;54.30;;;;;;5057897;28;20490;-88
2021/08/19 11:11:40;;;;;;;4.87;3.53;;;24.00;54.70;;;;;;5057197;28;20426;-88
2021/08/19 11:14:08;;;;;;;5.80;3.30;;;24.10;54.20;;;;;;5058569;28;20419;-87
2021/08/19 11:16:38;;;;;;;3.30;2.70;;;24.20;54.00;;;;;;5063466;28;20412;-87
2021/08/19 11:19:14;;;;;;;4.37;3.20;;;24.30;53.40;;;;;;5057897;28;20431;-87
2021/08/19 11:21:41;;;;;;;6.83;3.20;;;24.00;53.90;;;;;;5058809;28;20454;-88
2021/08/19 11:24:08;;;;;;;12.67;5.43;;;24.10;54.30;;;;;;5058837;28;20465;-87
2021/08/19 11:26:35;;;;;;;4.00;3.20;;;24.10;54.70;;;;;;5062568;28;20407;-87
2021/08/19 11:29:02;;;;;;;9.03;3.73;;;24.00;54.10;;;;;;5063446;28;20491;-87
2021/08/19 11:31:28;;;;;;;9.23;3.60;;;23.70;54.00;;;;;;5059321;28;20426;-87
2021/08/19 11:34:03;;;;;;;10.70;4.60;;;23.70;54.60;;;;;;5057702;28;20438;-87
2021/08/19 11:36:30;;;;;;;4.37;3.13;;;23.70;54.70;;;;;;5058490;28;20188;-87
2021/08/19 11:38:58;;;;;;;6.20;3.47;;;23.50;55.00;;;;;;5058047;28;20420;-87
2021/08/19 11:41:24;;;;;;;4.23;2.80;;;23.70;55.10;;;;;;5056990;28;20477;-87
2021/08/19 11:43:56;;;;;;;4.20;2.73;;;23.60;54.80;;;;;;5058057;28;20919;-88
2021/08/19 11:46:27;;;;;;;6.47;2.53;;;23.30;54.70;;;;;;5059188;28;20412;-88
2021/08/19 11:48:59;;;;;;;4.93;2.47;;;23.30;53.90;;;;;;5058233;28;20482;-88
2021/08/19 11:51:34;;;;;;;7.23;2.43;;;23.20;54.20;;;;;;5055452;28;20509;-87
2021/08/19 11:54:05;;;;;;;4.60;2.87;;;23.00;55.30;;;;;;5056925;28;20439;-87
2021/08/19 11:56:33;;;;;;;2.97;2.37;;;22.80;55.60;;;;;;5057095;28;20419;-88
2021/08/19 11:59:11;;;;;;;4.10;2.93;;;22.80;56.30;;;;;;5057002;28;20431;-88
2021/08/19 12:01:39;;;;;;;10.97;2.60;;;22.70;56.80;;;;;;5056165;28;20527;-88
2021/08/19 12:04:06;;;;;;;4.53;2.37;;;22.60;57.20;;;;;;5057913;28;20418;-87
2021/08/19 12:06:32;;;;;;;6.40;3.33;;;22.60;57.40;;;;;;5058640;28;20498;-87
2021/08/19 12:09:06;;;;;;;6.50;3.30;;;22.50;57.60;;;;;;5057457;28;20491;-88
2021/08/19 12:11:40;;;;;;;3.63;2.80;;;22.40;57.80;;;;;;5058142;28;20534;-87
2021/08/19 12:14:08;;;;;;;3.27;2.50;;;22.40;58.00;;;;;;5057467;28;20424;-88
2021/08/19 12:16:34;;;;;;;2.70;2.43;;;22.60;57.90;;;;;;5057685;28;20420;-87
2021/08/19 12:19:16;;;;;;;340.10;43.63;;;22.70;57.50;;;;;;5060861;28;20454;-87
2021/08/19 12:21:51;;;;;;;9.50;4.30;;;22.90;57.60;;;;;;5056056;28;20423;-88
2021/08/19 12:24:32;;;;;;;13.80;3.33;;;23.20;56.50;;;;;;5056982;28;20921;-88
2021/08/19 12:27:11;;;;;;;2.30;2.10;;;23.40;55.50;;;;;;5055281;28;20419;-87
2021/08/19 12:29:58;;;;;;;11.20;2.83;;;23.60;54.80;;;;;;5060925;28;20419;-88
2021/08/19 12:32:34;;;;;;;7.87;2.30;;;23.60;55.20;;;;;;5059426;28;20451;-87
2021/08/19 12:35:10;;;;;;;3.43;2.20;;;23.50;55.60;;;;;;5058454;28;20888;-88
2021/08/19 12:37:38;;;;;;;9.63;3.33;;;23.30;55.40;;;;;;5058984;28;20465;-87
2021/08/19 12:40:15;;;;;;;18.70;4.00;;;23.20;55.00;;;;;;5055276;28;20513;-88
2021/08/19 12:42:46;;;;;;;4.60;2.23;;;23.10;54.70;;;;;;5057379;28;20821;-88